sensor_id;sensor_type;location;lat;lon;timestamp;P1;durP1;ratioP1;P2;durP2;ratioP2
2896;SDS011;1458;49.728;9.228;2022-12-04T00:01:33;0.90;;;0.90;;
2896;SDS011;1458;49.728;9.228;2022-12-04T00:04:01;0.90;;;0.90;;
2896;SDS011;1458;49.728;9.228;2022-12-04T00:06:28;0.80;;;0.80;;
2896;SDS011;1458;49.728;9.228;2022-12-04T00:08:56;0.80;;;0.80;;
2896;SDS011;1458;49.728;9.228;2022-12-04T00:11:25;0.90;;;0.90;;
2896;SDS011;1458;49.728;9.228;2022-12-04T00:13:55;0.90;;;0.90;;
2896;SDS011;1458;49.728;9.228;2022-12-04T00:16:26;0.90;;;0.90;;
2896;SDS011;1458;49.728;9.228;2022-12-04T00:18:55;0.80;;;0.80;;
2896;SDS011;1458;49.728;9.228;2022-12-04T00:21:23;0.80;;;0.80;;
2896;SDS011;1458;49.728;9.228;2022-12-04T00:23:52;1.20;;;1.20;;
2896;SDS011;1458;49.728;9.228;2022-12-04T00:26:20;0.87;;;0.87;;
2896;SDS011;1458;49.728;9.228;2022-12-04T00:28:49;0.80;;;0.80;;
2896;SDS011;1458;49.728;9.228;2022-12-04T00:31:19;0.90;;;0.90;;
2896;SDS011;1458;49.728;9.228;2022-12-04T00:33:50;0.80;;;0.80;;
2896;SDS011;1458;49.728;9.228;2022-12-04T00:36:18;0.83;;;0.83;;
2896;SDS011;1458;49.728;9.228;2022-12-04T00:38:46;0.90;;;0.90;;
2896;SDS011;1458;49.728;9.228;2022-12-04T00:41:15;0.87;;;0.87;;
2896;SDS011;1458;49.728;9.228;2022-12-04T00:43:44;0.90;;;0.90;;
2896;SDS011;1458;49.728;9.228;2022-12-04T00:46:12;0.83;;;0.83;;
2896;SDS011;1458;49.728;9.228;2022-12-04T00:48:40;0.97;;;0.97;;
2896;SDS011;1458;49.728;9.228;2022-12-04T00:51:09;0.90;;;0.90;;
2896;SDS011;1458;49.728;9.228;2022-12-04T00:53:40;0.90;;;0.90;;
2896;SDS011;1458;49.728;9.228;2022-12-04T00:56:08;0.80;;;0.80;;
2896;SDS011;1458;49.728;9.228;2022-12-04T00:58:38;0.90;;;0.90;;
2896;SDS011;1458;49.728;9.228;2022-12-04T01:01:07;0.97;;;0.97;;
2896;SDS011;1458;49.728;9.228;2022-12-04T01:03:36;1.00;;;1.00;;
2896;SDS011;1458;49.728;9.228;2022-12-04T01:06:05;0.90;;;0.90;;
2896;SDS011;1458;49.728;9.228;2022-12-04T01:08:34;0.87;;;0.87;;
2896;SDS011;1458;49.728;9.228;2022-12-04T01:11:03;0.90;;;0.90;;
2896;SDS011;1458;49.728;9.228;2022-12-04T01:13:32;0.90;;;0.90;;
2896;SDS011;1458;49.728;9.228;2022-12-04T01:15:59;1.00;;;1.00;;
2896;SDS011;1458;49.728;9.228;2022-12-04T01:18:26;1.00;;;1.00;;
2896;SDS011;1458;49.728;9.228;2022-12-04T01:20:54;0.90;;;0.90;;
2896;SDS011;1458;49.728;9.228;2022-12-04T01:23:21;0.80;;;0.80;;
2896;SDS011;1458;49.728;9.228;2022-12-04T01:25:51;0.80;;;0.80;;
2896;SDS011;1458;49.728;9.228;2022-12-04T01:28:20;0.80;;;0.80;;
2896;SDS011;1458;49.728;9.228;2022-12-04T01:30:56;0.80;;;0.80;;
2896;SDS011;1458;49.728;9.228;2022-12-04T01:33:25;0.90;;;0.90;;
2896;SDS011;1458;49.728;9.228;2022-12-04T01:35:53;0.80;;;0.80;;
2896;SDS011;1458;49.728;9.228;2022-12-04T01:38:21;0.90;;;0.90;;
2896;SDS011;1458;49.728;9.228;2022-12-04T01:40:51;0.80;;;0.80;;
2896;SDS011;1458;49.728;9.228;2022-12-04T01:43:19;0.80;;;0.80;;
2896;SDS011;1458;49.728;9.228;2022-12-04T01:45:48;0.80;;;0.80;;
2896;SDS011;1458;49.728;9.228;2022-12-04T01:48:18;0.80;;;0.80;;
2896;SDS011;1458;49.728;9.228;2022-12-04T01:50:50;0.90;;;0.90;;
2896;SDS011;1458;49.728;9.228;2022-12-04T01:53:25;0.97;;;0.97;;
2896;SDS011;1458;49.728;9.228;2022-12-04T01:55:56;0.90;;;0.90;;
2896;SDS011;1458;49.728;9.228;2022-12-04T01:58:25;0.90;;;0.90;;
2896;SDS011;1458;49.728;9.228;2022-12-04T02:00:59;0.90;;;0.90;;
2896;SDS011;1458;49.728;9.228;2022-12-04T02:03:30;0.80;;;0.80;;
2896;SDS011;1458;49.728;9.228;2022-12-04T02:05:58;0.87;;;0.87;;
2896;SDS011;1458;49.728;9.228;2022-12-04T02:08:25;0.90;;;0.90;;
2896;SDS011;1458;49.728;9.228;2022-12-04T02:10:57;1.00;;;1.00;;
2896;SDS011;1458;49.728;9.228;2022-12-04T02:13:47;0.90;;;0.90;;
2896;SDS011;1458;49.728;9.228;2022-12-04T02:16:23;0.80;;;0.80;;
2896;SDS011;1458;49.728;9.228;2022-12-04T02:19:01;0.90;;;0.90;;
2896;SDS011;1458;49.728;9.228;2022-12-04T02:21:47;0.80;;;0.80;;
2896;SDS011;1458;49.728;9.228;2022-12-04T02:24:21;0.80;;;0.80;;
2896;SDS011;1458;49.728;9.228;2022-12-04T02:27:11;0.80;;;0.80;;
2896;SDS011;1458;49.728;9.228;2022-12-04T02:29:56;0.90;;;0.90;;
2896;SDS011;1458;49.728;9.228;2022-12-04T02:32:29;0.90;;;0.90;;
2896;SDS011;1458;49.728;9.228;2022-12-04T02:35:05;1.07;;;1.07;;
2896;SDS011;1458;49.728;9.228;2022-12-04T02:37:41;1.10;;;1.10;;
2896;SDS011;1458;49.728;9.228;2022-12-04T02:40:13;0.90;;;0.90;;
2896;SDS011;1458;49.728;9.228;2022-12-04T02:42:46;0.80;;;0.80;;
2896;SDS011;1458;49.728;9.228;2022-12-04T02:45:22;0.70;;;0.70;;
2896;SDS011;1458;49.728;9.228;2022-12-04T02:47:55;0.83;;;0.83;;
2896;SDS011;1458;49.728;9.228;2022-12-04T02:50:26;0.97;;;0.97;;
2896;SDS011;1458;49.728;9.228;2022-12-04T02:52:56;0.80;;;0.80;;
2896;SDS011;1458;49.728;9.228;2022-12-04T02:55:30;1.10;;;1.10;;
2896;SDS011;1458;49.728;9.228;2022-12-04T02:58:08;1.00;;;1.00;;
2896;SDS011;1458;49.728;9.228;2022-12-04T03:00:42;0.90;;;0.90;;
2896;SDS011;1458;49.728;9.228;2022-12-04T03:03:13;0.80;;;0.80;;
2896;SDS011;1458;49.728;9.228;2022-12-04T03:05:46;0.90;;;0.90;;
2896;SDS011;1458;49.728;9.228;2022-12-04T03:08:21;0.70;;;0.70;;
2896;SDS011;1458;49.728;9.228;2022-12-04T03:10:54;0.80;;;0.80;;
2896;SDS011;1458;49.728;9.228;2022-12-04T03:13:27;0.80;;;0.80;;
2896;SDS011;1458;49.728;9.228;2022-12-04T03:16:02;0.80;;;0.80;;
2896;SDS011;1458;49.728;9.228;2022-12-04T03:18:34;0.80;;;0.80;;
2896;SDS011;1458;49.728;9.228;2022-12-04T03:21:07;0.83;;;0.83;;
2896;SDS011;1458;49.728;9.228;2022-12-04T03:23:41;0.80;;;0.80;;
2896;SDS011;1458;49.728;9.228;2022-12-04T03:26:15;0.70;;;0.70;;
2896;SDS011;1458;49.728;9.228;2022-12-04T03:28:50;0.80;;;0.80;;
2896;SDS011;1458;49.728;9.228;2022-12-04T03:31:25;0.80;;;0.80;;
2896;SDS011;1458;49.728;9.228;2022-12-04T03:34:01;0.80;;;0.80;;
2896;SDS011;1458;49.728;9.228;2022-12-04T03:36:32;0.90;;;0.90;;
2896;SDS011;1458;49.728;9.228;2022-12-04T03:39:05;0.90;;;0.90;;
2896;SDS011;1458;49.728;9.228;2022-12-04T03:41:41;0.90;;;0.90;;
2896;SDS011;1458;49.728;9.228;2022-12-04T03:44:20;1.10;;;1.10;;
2896;SDS011;1458;49.728;9.228;2022-12-04T03:46:53;0.90;;;0.90;;
2896;SDS011;1458;49.728;9.228;2022-12-04T03:49:28;0.80;;;0.80;;
2896;SDS011;1458;49.728;9.228;2022-12-04T03:52:06;0.80;;;0.80;;
2896;SDS011;1458;49.728;9.228;2022-12-04T03:54:41;0.80;;;0.80;;
2896;SDS011;1458;49.728;9.228;2022-12-04T03:57:13;0.80;;;0.80;;
2896;SDS011;1458;49.728;9.228;2022-12-04T03:59:46;0.90;;;0.90;;
2896;SDS011;1458;49.728;9.228;2022-12-04T04:02:23;0.70;;;0.70;;
2896;SDS011;1458;49.728;9.228;2022-12-04T04:04:54;0.80;;;0.80;;
2896;SDS011;1458;49.728;9.228;2022-12-04T04:07:25;0.70;;;0.70;;
2896;SDS011;1458;49.728;9.228;2022-12-04T04:10:01;0.80;;;0.80;;
2896;SDS011;1458;49.728;9.228;2022-12-04T04:12:32;0.70;;;0.70;;
2896;SDS011;1458;49.728;9.228;2022-12-04T04:15:06;0.73;;;0.73;;
2896;SDS011;1458;49.728;9.228;2022-12-04T04:17:57;0.70;;;0.70;;
2896;SDS011;1458;49.728;9.228;2022-12-04T04:20:46;0.70;;;0.70;;
2896;SDS011;1458;49.728;9.228;2022-12-04T04:23:38;0.70;;;0.70;;
2896;SDS011;1458;49.728;9.228;2022-12-04T04:26:26;0.70;;;0.70;;
2896;SDS011;1458;49.728;9.228;2022-12-04T04:28:59;0.80;;;0.80;;
2896;SDS011;1458;49.728;9.228;2022-12-04T04:31:29;0.80;;;0.80;;
2896;SDS011;1458;49.728;9.228;2022-12-04T04:34:06;0.90;;;0.90;;
2896;SDS011;1458;49.728;9.228;2022-12-04T04:36:46;0.60;;;0.60;;
2896;SDS011;1458;49.728;9.228;2022-12-04T04:39:23;0.73;;;0.73;;
2896;SDS011;1458;49.728;9.228;2022-12-04T04:41:58;0.70;;;0.70;;
2896;SDS011;1458;49.728;9.228;2022-12-04T04:44:32;1.00;;;1.00;;
2896;SDS011;1458;49.728;9.228;2022-12-04T04:47:07;0.70;;;0.70;;
2896;SDS011;1458;49.728;9.228;2022-12-04T04:49:42;0.70;;;0.70;;
2896;SDS011;1458;49.728;9.228;2022-12-04T04:52:11;0.80;;;0.80;;
2896;SDS011;1458;49.728;9.228;2022-12-04T04:54:39;0.60;;;0.60;;
2896;SDS011;1458;49.728;9.228;2022-12-04T04:57:07;0.70;;;0.70;;
2896;SDS011;1458;49.728;9.228;2022-12-04T04:59:34;0.73;;;0.73;;
2896;SDS011;1458;49.728;9.228;2022-12-04T05:02:02;0.70;;;0.70;;
2896;SDS011;1458;49.728;9.228;2022-12-04T05:04:29;0.70;;;0.70;;
2896;SDS011;1458;49.728;9.228;2022-12-04T05:06:58;0.80;;;0.80;;
2896;SDS011;1458;49.728;9.228;2022-12-04T05:09:25;0.70;;;0.70;;
2896;SDS011;1458;49.728;9.228;2022-12-04T05:11:53;0.70;;;0.70;;
2896;SDS011;1458;49.728;9.228;2022-12-04T05:14:20;0.60;;;0.60;;
2896;SDS011;1458;49.728;9.228;2022-12-04T05:16:47;0.70;;;0.70;;
2896;SDS011;1458;49.728;9.228;2022-12-04T05:19:15;0.70;;;0.70;;
2896;SDS011;1458;49.728;9.228;2022-12-04T05:22:01;0.80;;;0.80;;
2896;SDS011;1458;49.728;9.228;2022-12-04T05:24:28;0.70;;;0.70;;
2896;SDS011;1458;49.728;9.228;2022-12-04T05:26:55;0.67;;;0.67;;
2896;SDS011;1458;49.728;9.228;2022-12-04T05:29:22;0.60;;;0.60;;
2896;SDS011;1458;49.728;9.228;2022-12-04T05:31:50;0.70;;;0.70;;
2896;SDS011;1458;49.728;9.228;2022-12-04T05:34:17;0.60;;;0.60;;
2896;SDS011;1458;49.728;9.228;2022-12-04T05:36:44;0.70;;;0.70;;
2896;SDS011;1458;49.728;9.228;2022-12-04T05:39:13;0.70;;;0.70;;
2896;SDS011;1458;49.728;9.228;2022-12-04T05:41:40;0.60;;;0.60;;
2896;SDS011;1458;49.728;9.228;2022-12-04T05:44:08;0.60;;;0.60;;
2896;SDS011;1458;49.728;9.228;2022-12-04T05:46:35;0.60;;;0.60;;
2896;SDS011;1458;49.728;9.228;2022-12-04T05:49:02;0.60;;;0.60;;
2896;SDS011;1458;49.728;9.228;2022-12-04T05:51:30;0.70;;;0.70;;
2896;SDS011;1458;49.728;9.228;2022-12-04T05:53:57;0.73;;;0.73;;
2896;SDS011;1458;49.728;9.228;2022-12-04T05:56:26;0.60;;;0.60;;
2896;SDS011;1458;49.728;9.228;2022-12-04T05:58:54;0.60;;;0.60;;
2896;SDS011;1458;49.728;9.228;2022-12-04T06:01:22;0.80;;;0.80;;
2896;SDS011;1458;49.728;9.228;2022-12-04T06:03:50;0.70;;;0.70;;
2896;SDS011;1458;49.728;9.228;2022-12-04T06:06:18;0.70;;;0.70;;
2896;SDS011;1458;49.728;9.228;2022-12-04T06:08:48;0.67;;;0.67;;
2896;SDS011;1458;49.728;9.228;2022-12-04T06:11:17;0.80;;;0.80;;
2896;SDS011;1458;49.728;9.228;2022-12-04T06:13:48;0.70;;;0.70;;
2896;SDS011;1458;49.728;9.228;2022-12-04T06:16:17;0.60;;;0.60;;
2896;SDS011;1458;49.728;9.228;2022-12-04T06:18:47;0.50;;;0.50;;
2896;SDS011;1458;49.728;9.228;2022-12-04T06:21:15;0.60;;;0.60;;
2896;SDS011;1458;49.728;9.228;2022-12-04T06:23:43;0.60;;;0.60;;
2896;SDS011;1458;49.728;9.228;2022-12-04T06:26:11;0.57;;;0.57;;
2896;SDS011;1458;49.728;9.228;2022-12-04T06:28:38;0.60;;;0.60;;
2896;SDS011;1458;49.728;9.228;2022-12-04T06:31:08;0.60;;;0.60;;
2896;SDS011;1458;49.728;9.228;2022-12-04T06:33:38;0.70;;;0.70;;
2896;SDS011;1458;49.728;9.228;2022-12-04T06:36:07;0.70;;;0.70;;
2896;SDS011;1458;49.728;9.228;2022-12-04T06:38:37;0.80;;;0.80;;
2896;SDS011;1458;49.728;9.228;2022-12-04T06:41:06;0.60;;;0.60;;
2896;SDS011;1458;49.728;9.228;2022-12-04T06:43:35;0.67;;;0.67;;
2896;SDS011;1458;49.728;9.228;2022-12-04T06:46:04;0.60;;;0.60;;
2896;SDS011;1458;49.728;9.228;2022-12-04T06:48:35;0.70;;;0.70;;
2896;SDS011;1458;49.728;9.228;2022-12-04T06:51:03;0.60;;;0.60;;
2896;SDS011;1458;49.728;9.228;2022-12-04T06:53:32;0.80;;;0.80;;
2896;SDS011;1458;49.728;9.228;2022-12-04T06:56:01;0.60;;;0.60;;
2896;SDS011;1458;49.728;9.228;2022-12-04T06:58:31;0.60;;;0.60;;
2896;SDS011;1458;49.728;9.228;2022-12-04T07:00:59;0.70;;;0.70;;
2896;SDS011;1458;49.728;9.228;2022-12-04T07:03:32;0.60;;;0.60;;
2896;SDS011;1458;49.728;9.228;2022-12-04T07:06:08;0.60;;;0.60;;
2896;SDS011;1458;49.728;9.228;2022-12-04T07:08:41;0.53;;;0.53;;
2896;SDS011;1458;49.728;9.228;2022-12-04T07:11:10;0.63;;;0.63;;
2896;SDS011;1458;49.728;9.228;2022-12-04T07:13:38;0.60;;;0.60;;
2896;SDS011;1458;49.728;9.228;2022-12-04T07:16:06;0.60;;;0.60;;
2896;SDS011;1458;49.728;9.228;2022-12-04T07:18:38;0.60;;;0.60;;
2896;SDS011;1458;49.728;9.228;2022-12-04T07:21:06;0.60;;;0.60;;
2896;SDS011;1458;49.728;9.228;2022-12-04T07:23:35;0.53;;;0.53;;
2896;SDS011;1458;49.728;9.228;2022-12-04T07:26:04;0.60;;;0.60;;
2896;SDS011;1458;49.728;9.228;2022-12-04T07:28:32;0.50;;;0.50;;
2896;SDS011;1458;49.728;9.228;2022-12-04T07:31:02;0.60;;;0.60;;
2896;SDS011;1458;49.728;9.228;2022-12-04T07:33:30;0.60;;;0.60;;
2896;SDS011;1458;49.728;9.228;2022-12-04T07:36:00;0.60;;;0.60;;
2896;SDS011;1458;49.728;9.228;2022-12-04T07:38:30;0.77;;;0.77;;
2896;SDS011;1458;49.728;9.228;2022-12-04T07:40:59;0.60;;;0.60;;
2896;SDS011;1458;49.728;9.228;2022-12-04T07:43:28;0.60;;;0.60;;
2896;SDS011;1458;49.728;9.228;2022-12-04T07:45:56;0.60;;;0.60;;
2896;SDS011;1458;49.728;9.228;2022-12-04T07:48:25;0.70;;;0.70;;
2896;SDS011;1458;49.728;9.228;2022-12-04T07:51:01;0.67;;;0.67;;
2896;SDS011;1458;49.728;9.228;2022-12-04T07:53:32;0.50;;;0.50;;
2896;SDS011;1458;49.728;9.228;2022-12-04T07:56:00;0.60;;;0.60;;
2896;SDS011;1458;49.728;9.228;2022-12-04T07:58:28;0.60;;;0.60;;
2896;SDS011;1458;49.728;9.228;2022-12-04T08:01:03;0.60;;;0.60;;
2896;SDS011;1458;49.728;9.228;2022-12-04T08:03:32;0.70;;;0.70;;
2896;SDS011;1458;49.728;9.228;2022-12-04T08:06:01;0.60;;;0.60;;
2896;SDS011;1458;49.728;9.228;2022-12-04T08:08:30;0.60;;;0.60;;
2896;SDS011;1458;49.728;9.228;2022-12-04T08:10:58;0.50;;;0.50;;
2896;SDS011;1458;49.728;9.228;2022-12-04T08:13:26;0.50;;;0.50;;
2896;SDS011;1458;49.728;9.228;2022-12-04T08:15:53;0.50;;;0.50;;
2896;SDS011;1458;49.728;9.228;2022-12-04T08:18:20;0.50;;;0.50;;
2896;SDS011;1458;49.728;9.228;2022-12-04T08:20:48;0.57;;;0.57;;
2896;SDS011;1458;49.728;9.228;2022-12-04T08:23:17;0.60;;;0.60;;
2896;SDS011;1458;49.728;9.228;2022-12-04T08:25:44;0.50;;;0.50;;
2896;SDS011;1458;49.728;9.228;2022-12-04T08:28:11;0.50;;;0.50;;
2896;SDS011;1458;49.728;9.228;2022-12-04T08:30:38;0.50;;;0.50;;
2896;SDS011;1458;49.728;9.228;2022-12-04T08:33:06;0.50;;;0.50;;
2896;SDS011;1458;49.728;9.228;2022-12-04T08:35:33;0.67;;;0.67;;
2896;SDS011;1458;49.728;9.228;2022-12-04T08:38:00;0.60;;;0.60;;
2896;SDS011;1458;49.728;9.228;2022-12-04T08:40:30;0.63;;;0.63;;
2896;SDS011;1458;49.728;9.228;2022-12-04T08:42:57;0.50;;;0.50;;
2896;SDS011;1458;49.728;9.228;2022-12-04T08:45:24;0.50;;;0.50;;
2896;SDS011;1458;49.728;9.228;2022-12-04T08:47:52;0.50;;;0.50;;
2896;SDS011;1458;49.728;9.228;2022-12-04T08:50:19;0.50;;;0.50;;
2896;SDS011;1458;49.728;9.228;2022-12-04T08:52:47;0.50;;;0.50;;
2896;SDS011;1458;49.728;9.228;2022-12-04T08:55:15;0.60;;;0.60;;
2896;SDS011;1458;49.728;9.228;2022-12-04T08:57:43;0.60;;;0.60;;
2896;SDS011;1458;49.728;9.228;2022-12-04T09:00:11;0.60;;;0.60;;
2896;SDS011;1458;49.728;9.228;2022-12-04T09:02:40;0.50;;;0.50;;
2896;SDS011;1458;49.728;9.228;2022-12-04T09:05:07;0.60;;;0.60;;
2896;SDS011;1458;49.728;9.228;2022-12-04T09:07:35;0.50;;;0.50;;
2896;SDS011;1458;49.728;9.228;2022-12-04T09:10:02;0.57;;;0.57;;
2896;SDS011;1458;49.728;9.228;2022-12-04T09:12:31;0.50;;;0.50;;
2896;SDS011;1458;49.728;9.228;2022-12-04T09:14:59;0.60;;;0.60;;
2896;SDS011;1458;49.728;9.228;2022-12-04T09:17:27;0.50;;;0.50;;
2896;SDS011;1458;49.728;9.228;2022-12-04T09:19:54;0.50;;;0.50;;
2896;SDS011;1458;49.728;9.228;2022-12-04T09:22:22;0.50;;;0.50;;
2896;SDS011;1458;49.728;9.228;2022-12-04T09:24:49;0.50;;;0.50;;
2896;SDS011;1458;49.728;9.228;2022-12-04T09:27:17;0.50;;;0.50;;
2896;SDS011;1458;49.728;9.228;2022-12-04T09:29:44;0.50;;;0.50;;
2896;SDS011;1458;49.728;9.228;2022-12-04T09:32:13;0.50;;;0.50;;
2896;SDS011;1458;49.728;9.228;2022-12-04T09:34:40;0.50;;;0.50;;
2896;SDS011;1458;49.728;9.228;2022-12-04T09:37:07;0.50;;;0.50;;
2896;SDS011;1458;49.728;9.228;2022-12-04T09:39:35;0.50;;;0.50;;
2896;SDS011;1458;49.728;9.228;2022-12-04T09:42:15;0.40;;;0.40;;
2896;SDS011;1458;49.728;9.228;2022-12-04T09:44:57;0.60;;;0.60;;
2896;SDS011;1458;49.728;9.228;2022-12-04T09:47:32;0.60;;;0.60;;
2896;SDS011;1458;49.728;9.228;2022-12-04T09:50:03;0.63;;;0.63;;
2896;SDS011;1458;49.728;9.228;2022-12-04T09:52:41;0.60;;;0.60;;
2896;SDS011;1458;49.728;9.228;2022-12-04T09:55:17;0.50;;;0.50;;
2896;SDS011;1458;49.728;9.228;2022-12-04T09:57:50;0.50;;;0.50;;
2896;SDS011;1458;49.728;9.228;2022-12-04T10:00:20;0.50;;;0.50;;
2896;SDS011;1458;49.728;9.228;2022-12-04T10:02:50;0.60;;;0.60;;
2896;SDS011;1458;49.728;9.228;2022-12-04T10:05:24;0.60;;;0.60;;
2896;SDS011;1458;49.728;9.228;2022-12-04T10:08:09;0.60;;;0.60;;
2896;SDS011;1458;49.728;9.228;2022-12-04T10:10:46;0.60;;;0.60;;
2896;SDS011;1458;49.728;9.228;2022-12-04T10:13:26;0.50;;;0.50;;
2896;SDS011;1458;49.728;9.228;2022-12-04T10:16:20;0.50;;;0.50;;
2896;SDS011;1458;49.728;9.228;2022-12-04T10:18:56;0.50;;;0.50;;
2896;SDS011;1458;49.728;9.228;2022-12-04T10:21:32;0.50;;;0.50;;
2896;SDS011;1458;49.728;9.228;2022-12-04T10:24:21;0.60;;;0.60;;
2896;SDS011;1458;49.728;9.228;2022-12-04T10:27:00;0.50;;;0.50;;
2896;SDS011;1458;49.728;9.228;2022-12-04T10:29:35;0.50;;;0.50;;
2896;SDS011;1458;49.728;9.228;2022-12-04T10:32:05;0.60;;;0.60;;
2896;SDS011;1458;49.728;9.228;2022-12-04T10:34:45;0.60;;;0.60;;
2896;SDS011;1458;49.728;9.228;2022-12-04T10:37:16;0.60;;;0.60;;
2896;SDS011;1458;49.728;9.228;2022-12-04T10:39:45;0.60;;;0.60;;
2896;SDS011;1458;49.728;9.228;2022-12-04T10:42:20;0.60;;;0.60;;
2896;SDS011;1458;49.728;9.228;2022-12-04T10:44:55;0.60;;;0.60;;
2896;SDS011;1458;49.728;9.228;2022-12-04T10:47:22;0.50;;;0.50;;
2896;SDS011;1458;49.728;9.228;2022-12-04T10:49:54;0.50;;;0.50;;
2896;SDS011;1458;49.728;9.228;2022-12-04T10:52:25;0.50;;;0.50;;
2896;SDS011;1458;49.728;9.228;2022-12-04T10:54:54;0.50;;;0.50;;
2896;SDS011;1458;49.728;9.228;2022-12-04T10:57:33;0.60;;;0.60;;
2896;SDS011;1458;49.728;9.228;2022-12-04T11:00:04;0.60;;;0.60;;
2896;SDS011;1458;49.728;9.228;2022-12-04T11:02:54;0.60;;;0.60;;
2896;SDS011;1458;49.728;9.228;2022-12-04T11:05:27;0.60;;;0.60;;
2896;SDS011;1458;49.728;9.228;2022-12-04T11:07:58;0.60;;;0.60;;
2896;SDS011;1458;49.728;9.228;2022-12-04T11:10:33;0.70;;;0.70;;
2896;SDS011;1458;49.728;9.228;2022-12-04T11:13:04;0.60;;;0.60;;
2896;SDS011;1458;49.728;9.228;2022-12-04T11:15:41;0.60;;;0.60;;
2896;SDS011;1458;49.728;9.228;2022-12-04T11:18:14;0.60;;;0.60;;
2896;SDS011;1458;49.728;9.228;2022-12-04T11:20:49;0.60;;;0.60;;
2896;SDS011;1458;49.728;9.228;2022-12-04T11:23:19;0.70;;;0.70;;
2896;SDS011;1458;49.728;9.228;2022-12-04T11:25:48;0.60;;;0.60;;
2896;SDS011;1458;49.728;9.228;2022-12-04T11:28:17;0.73;;;0.73;;
2896;SDS011;1458;49.728;9.228;2022-12-04T11:30:48;0.60;;;0.60;;
2896;SDS011;1458;49.728;9.228;2022-12-04T11:33:27;0.60;;;0.60;;
2896;SDS011;1458;49.728;9.228;2022-12-04T11:36:02;0.70;;;0.70;;
2896;SDS011;1458;49.728;9.228;2022-12-04T11:38:42;0.70;;;0.70;;
2896;SDS011;1458;49.728;9.228;2022-12-04T11:41:20;0.60;;;0.60;;
2896;SDS011;1458;49.728;9.228;2022-12-04T11:43:52;0.60;;;0.60;;
2896;SDS011;1458;49.728;9.228;2022-12-04T11:46:21;0.60;;;0.60;;
2896;SDS011;1458;49.728;9.228;2022-12-04T11:48:51;0.60;;;0.60;;
2896;SDS011;1458;49.728;9.228;2022-12-04T11:51:22;0.60;;;0.60;;
2896;SDS011;1458;49.728;9.228;2022-12-04T11:54:04;0.57;;;0.57;;
2896;SDS011;1458;49.728;9.228;2022-12-04T11:56:39;0.60;;;0.60;;
2896;SDS011;1458;49.728;9.228;2022-12-04T11:59:15;0.60;;;0.60;;
2896;SDS011;1458;49.728;9.228;2022-12-04T12:02:16;0.60;;;0.60;;
2896;SDS011;1458;49.728;9.228;2022-12-04T12:08:28;0.60;;;0.60;;
2896;SDS011;1458;49.728;9.228;2022-12-04T12:11:10;0.60;;;0.60;;
2896;SDS011;1458;49.728;9.228;2022-12-04T12:13:48;0.60;;;0.60;;
2896;SDS011;1458;49.728;9.228;2022-12-04T12:16:26;0.60;;;0.60;;
2896;SDS011;1458;49.728;9.228;2022-12-04T12:19:07;0.60;;;0.60;;
2896;SDS011;1458;49.728;9.228;2022-12-04T12:21:59;0.70;;;0.70;;
2896;SDS011;1458;49.728;9.228;2022-12-04T12:24:36;0.60;;;0.60;;
2896;SDS011;1458;49.728;9.228;2022-12-04T12:27:20;0.50;;;0.50;;
2896;SDS011;1458;49.728;9.228;2022-12-04T12:30:12;0.50;;;0.50;;
2896;SDS011;1458;49.728;9.228;2022-12-04T12:32:55;0.70;;;0.70;;
2896;SDS011;1458;49.728;9.228;2022-12-04T12:35:32;0.50;;;0.50;;
2896;SDS011;1458;49.728;9.228;2022-12-04T12:38:05;0.57;;;0.57;;
2896;SDS011;1458;49.728;9.228;2022-12-04T12:40:39;0.60;;;0.60;;
2896;SDS011;1458;49.728;9.228;2022-12-04T12:43:10;0.60;;;0.60;;
2896;SDS011;1458;49.728;9.228;2022-12-04T12:45:44;0.60;;;0.60;;
2896;SDS011;1458;49.728;9.228;2022-12-04T12:48:20;0.67;;;0.67;;
2896;SDS011;1458;49.728;9.228;2022-12-04T12:50:54;0.60;;;0.60;;
2896;SDS011;1458;49.728;9.228;2022-12-04T12:53:28;0.60;;;0.60;;
2896;SDS011;1458;49.728;9.228;2022-12-04T12:56:04;0.50;;;0.50;;
2896;SDS011;1458;49.728;9.228;2022-12-04T12:58:35;0.53;;;0.53;;
2896;SDS011;1458;49.728;9.228;2022-12-04T13:01:07;0.60;;;0.60;;
2896;SDS011;1458;49.728;9.228;2022-12-04T13:03:43;0.60;;;0.60;;
2896;SDS011;1458;49.728;9.228;2022-12-04T13:06:20;0.60;;;0.60;;
2896;SDS011;1458;49.728;9.228;2022-12-04T13:08:58;0.60;;;0.60;;
2896;SDS011;1458;49.728;9.228;2022-12-04T13:11:33;0.70;;;0.70;;
2896;SDS011;1458;49.728;9.228;2022-12-04T13:14:02;0.60;;;0.60;;
2896;SDS011;1458;49.728;9.228;2022-12-04T13:16:32;0.60;;;0.60;;
2896;SDS011;1458;49.728;9.228;2022-12-04T13:19:07;0.60;;;0.60;;
2896;SDS011;1458;49.728;9.228;2022-12-04T13:21:42;0.60;;;0.60;;
2896;SDS011;1458;49.728;9.228;2022-12-04T13:27:29;0.67;;;0.67;;
2896;SDS011;1458;49.728;9.228;2022-12-04T13:30:12;0.60;;;0.60;;
2896;SDS011;1458;49.728;9.228;2022-12-04T13:33:07;0.60;;;0.60;;
2896;SDS011;1458;49.728;9.228;2022-12-04T13:36:12;0.50;;;0.50;;
2896;SDS011;1458;49.728;9.228;2022-12-04T13:39:20;0.60;;;0.60;;
2896;SDS011;1458;49.728;9.228;2022-12-04T13:42:23;0.60;;;0.60;;
2896;SDS011;1458;49.728;9.228;2022-12-04T13:44:55;0.60;;;0.60;;
2896;SDS011;1458;49.728;9.228;2022-12-04T13:47:25;0.50;;;0.50;;
2896;SDS011;1458;49.728;9.228;2022-12-04T13:50:05;0.50;;;0.50;;
2896;SDS011;1458;49.728;9.228;2022-12-04T13:52:51;0.50;;;0.50;;
2896;SDS011;1458;49.728;9.228;2022-12-04T13:55:23;0.50;;;0.50;;
2896;SDS011;1458;49.728;9.228;2022-12-04T13:57:57;0.50;;;0.50;;
2896;SDS011;1458;49.728;9.228;2022-12-04T14:00:29;0.50;;;0.50;;
2896;SDS011;1458;49.728;9.228;2022-12-04T14:03:00;0.60;;;0.60;;
2896;SDS011;1458;49.728;9.228;2022-12-04T14:05:32;0.53;;;0.53;;
2896;SDS011;1458;49.728;9.228;2022-12-04T14:08:07;0.50;;;0.50;;
2896;SDS011;1458;49.728;9.228;2022-12-04T14:10:55;0.50;;;0.50;;
2896;SDS011;1458;49.728;9.228;2022-12-04T14:13:27;0.50;;;0.50;;
2896;SDS011;1458;49.728;9.228;2022-12-04T14:16:14;0.50;;;0.50;;
2896;SDS011;1458;49.728;9.228;2022-12-04T14:18:48;0.50;;;0.50;;
2896;SDS011;1458;49.728;9.228;2022-12-04T14:21:18;0.50;;;0.50;;
2896;SDS011;1458;49.728;9.228;2022-12-04T14:23:46;0.63;;;0.63;;
2896;SDS011;1458;49.728;9.228;2022-12-04T14:26:18;0.50;;;0.50;;
2896;SDS011;1458;49.728;9.228;2022-12-04T14:28:52;0.50;;;0.50;;
2896;SDS011;1458;49.728;9.228;2022-12-04T14:31:36;0.50;;;0.50;;
2896;SDS011;1458;49.728;9.228;2022-12-04T14:34:13;0.50;;;0.50;;
2896;SDS011;1458;49.728;9.228;2022-12-04T14:36:47;0.73;;;0.73;;
2896;SDS011;1458;49.728;9.228;2022-12-04T14:39:19;0.53;;;0.53;;
2896;SDS011;1458;49.728;9.228;2022-12-04T14:41:52;0.50;;;0.50;;
2896;SDS011;1458;49.728;9.228;2022-12-04T14:44:31;0.70;;;0.70;;
2896;SDS011;1458;49.728;9.228;2022-12-04T14:47:01;0.70;;;0.70;;
2896;SDS011;1458;49.728;9.228;2022-12-04T14:49:41;0.50;;;0.50;;
2896;SDS011;1458;49.728;9.228;2022-12-04T14:52:35;0.60;;;0.60;;
2896;SDS011;1458;49.728;9.228;2022-12-04T14:55:11;0.50;;;0.50;;
2896;SDS011;1458;49.728;9.228;2022-12-04T14:57:51;0.57;;;0.57;;
2896;SDS011;1458;49.728;9.228;2022-12-04T15:00:50;0.60;;;0.60;;
2896;SDS011;1458;49.728;9.228;2022-12-04T15:03:21;0.50;;;0.50;;
2896;SDS011;1458;49.728;9.228;2022-12-04T15:05:50;0.50;;;0.50;;
2896;SDS011;1458;49.728;9.228;2022-12-04T15:08:28;0.70;;;0.70;;
2896;SDS011;1458;49.728;9.228;2022-12-04T15:10:55;0.50;;;0.50;;
2896;SDS011;1458;49.728;9.228;2022-12-04T15:13:40;0.50;;;0.50;;
2896;SDS011;1458;49.728;9.228;2022-12-04T15:16:08;0.60;;;0.60;;
2896;SDS011;1458;49.728;9.228;2022-12-04T15:18:52;0.60;;;0.60;;
2896;SDS011;1458;49.728;9.228;2022-12-04T15:21:21;0.60;;;0.60;;
2896;SDS011;1458;49.728;9.228;2022-12-04T15:23:49;0.60;;;0.60;;
2896;SDS011;1458;49.728;9.228;2022-12-04T15:26:17;0.60;;;0.60;;
2896;SDS011;1458;49.728;9.228;2022-12-04T15:28:47;0.60;;;0.60;;
2896;SDS011;1458;49.728;9.228;2022-12-04T15:31:18;0.50;;;0.50;;
2896;SDS011;1458;49.728;9.228;2022-12-04T15:33:49;0.50;;;0.50;;
2896;SDS011;1458;49.728;9.228;2022-12-04T15:36:26;0.60;;;0.60;;
2896;SDS011;1458;49.728;9.228;2022-12-04T15:39:05;0.57;;;0.57;;
2896;SDS011;1458;49.728;9.228;2022-12-04T15:41:33;0.50;;;0.50;;
2896;SDS011;1458;49.728;9.228;2022-12-04T15:44:18;0.50;;;0.50;;
2896;SDS011;1458;49.728;9.228;2022-12-04T15:46:48;0.60;;;0.60;;
2896;SDS011;1458;49.728;9.228;2022-12-04T15:49:19;0.50;;;0.50;;
2896;SDS011;1458;49.728;9.228;2022-12-04T15:52:02;0.70;;;0.70;;
2896;SDS011;1458;49.728;9.228;2022-12-04T15:54:32;0.50;;;0.50;;
2896;SDS011;1458;49.728;9.228;2022-12-04T15:57:02;0.50;;;0.50;;